DWI461 TNCM-MDSD
Flight info
| Callsign | DWI461 |
|---|---|
| Flight time | 1h 6m |
| Altitude | 38000 |
| Route | BOPAT2 GOUDA L577 GOSUB GOSUB2G |
| Aircraft | B38M/M-SDE1FGHILORVWXY/HB1 |
Departure
| Time | 2026-05-06 16:51 |
|---|---|
| Airport | Princess Juliana International Airport (TNCM) |
Arrival
| Time | 2026-05-06 17:58 |
|---|---|
| Airport | Las Américas International Airport (MDSD) |
| Time | Latitude | Longitude | Altitude | Speed | Heading |
|---|---|---|---|---|---|
| 2026-05-06 16:16 | 18.04339 | -63.11294 | 23 ft | 0 kts | 352° |
| 2026-05-06 16:42 | 18.04318 | -63.11289 | 26 ft | 4 kts | 341° |
| 2026-05-06 16:43 | 18.04295 | -63.11277 | 25 ft | 4 kts | 316° |
| 2026-05-06 16:43 | 18.04283 | -63.11255 | 27 ft | 4 kts | 267° |
| 2026-05-06 16:43 | 18.04286 | -63.11244 | 26 ft | 0 kts | 243° |
| 2026-05-06 16:47 | 18.04283 | -63.11250 | 25 ft | 3 kts | 243° |
| 2026-05-06 16:47 | 18.04259 | -63.11298 | 23 ft | 11 kts | 241° |
| 2026-05-06 16:48 | 18.04233 | -63.11404 | 23 ft | 19 kts | 262° |
| 2026-05-06 16:48 | 18.04191 | -63.11515 | 25 ft | 16 kts | 230° |
| 2026-05-06 16:48 | 18.04117 | -63.11611 | 24 ft | 18 kts | 232° |
| 2026-05-06 16:48 | 18.04058 | -63.11727 | 23 ft | 18 kts | 260° |
| 2026-05-06 16:49 | 18.04044 | -63.11833 | 23 ft | 9 kts | 262° |
| 2026-05-06 16:49 | 18.04041 | -63.11849 | 24 ft | 0 kts | 262° |
| 2026-05-06 16:49 | 18.04036 | -63.11877 | 25 ft | 11 kts | 256° |
| 2026-05-06 16:50 | 18.03992 | -63.11951 | 26 ft | 8 kts | 220° |
| 2026-05-06 16:50 | 18.03942 | -63.11944 | 27 ft | 8 kts | 113° |
| 2026-05-06 16:50 | 18.03950 | -63.11887 | 24 ft | 9 kts | 80° |
| 2026-05-06 16:50 | 18.03959 | -63.11829 | 24 ft | 23 kts | 81° |
| 2026-05-06 16:51 | 18.04067 | -63.11083 | 26 ft | 130 kts | 81° |
| 2026-05-06 16:51 | 18.04231 | -63.09913 | 194 ft | 182 kts | 83° |
| 2026-05-06 16:51 | 18.04305 | -63.08545 | 1065 ft | 196 kts | 101° |
| 2026-05-06 16:51 | 18.03655 | -63.07209 | 1961 ft | 219 kts | 134° |
| 2026-05-06 16:52 | 18.02279 | -63.06368 | 3059 ft | 240 kts | 159° |
| 2026-05-06 16:52 | 18.00609 | -63.06156 | 4376 ft | 244 kts | 181° |
| 2026-05-06 16:52 | 17.98949 | -63.06674 | 5345 ft | 260 kts | 206° |
| 2026-05-06 16:52 | 17.97562 | -63.08000 | 6141 ft | 280 kts | 234° |
| 2026-05-06 16:53 | 17.96843 | -63.09914 | 7155 ft | 288 kts | 261° |
| 2026-05-06 16:53 | 17.96849 | -63.12023 | 8179 ft | 288 kts | 271° |
| 2026-05-06 16:53 | 17.96872 | -63.14105 | 9199 ft | 289 kts | 266° |
| 2026-05-06 16:53 | 17.96769 | -63.16242 | 10109 ft | 294 kts | 264° |
| 2026-05-06 16:54 | 17.96591 | -63.18405 | 10885 ft | 303 kts | 264° |
| 2026-05-06 16:54 | 17.96413 | -63.20671 | 11416 ft | 319 kts | 265° |
| 2026-05-06 16:54 | 17.96231 | -63.23052 | 11961 ft | 333 kts | 265° |
| 2026-05-06 16:54 | 17.96053 | -63.25504 | 12686 ft | 337 kts | 265° |
| 2026-05-06 16:55 | 17.95888 | -63.27966 | 13560 ft | 339 kts | 266° |
| 2026-05-06 16:55 | 17.95725 | -63.30452 | 14256 ft | 343 kts | 266° |
| 2026-05-06 16:55 | 17.95563 | -63.32971 | 14953 ft | 346 kts | 267° |
| 2026-05-06 16:55 | 17.95418 | -63.35246 | 15565 ft | 348 kts | 267° |
| 2026-05-06 16:56 | 17.95257 | -63.37795 | 16231 ft | 351 kts | 267° |
| 2026-05-06 16:56 | 17.95093 | -63.40365 | 16881 ft | 354 kts | 268° |
| 2026-05-06 16:56 | 17.94929 | -63.42928 | 17494 ft | 357 kts | 268° |
| 2026-05-06 16:56 | 17.94760 | -63.45550 | 18110 ft | 360 kts | 268° |
| 2026-05-06 16:57 | 17.94590 | -63.48197 | 18676 ft | 363 kts | 268° |
| 2026-05-06 16:57 | 17.94418 | -63.50851 | 19182 ft | 366 kts | 268° |
| 2026-05-06 16:57 | 17.94305 | -63.52615 | 19518 ft | 368 kts | 267° |
| 2026-05-06 16:57 | 17.94073 | -63.56227 | 20183 ft | 372 kts | 267° |
| 2026-05-06 16:58 | 17.93957 | -63.58013 | 20495 ft | 374 kts | 266° |
| 2026-05-06 16:58 | 17.93780 | -63.60751 | 20980 ft | 377 kts | 266° |
| 2026-05-06 16:58 | 17.93603 | -63.63504 | 21485 ft | 379 kts | 266° |
| 2026-05-06 16:58 | 17.93567 | -63.67185 | 22070 ft | 386 kts | 278° |
| 2026-05-06 16:59 | 17.93936 | -63.69084 | 22430 ft | 387 kts | 279° |
| 2026-05-06 16:59 | 17.94426 | -63.71875 | 22896 ft | 391 kts | 279° |
| 2026-05-06 16:59 | 17.94932 | -63.74696 | 23363 ft | 394 kts | 278° |
| 2026-05-06 16:59 | 17.95455 | -63.77539 | 23813 ft | 398 kts | 279° |
| 2026-05-06 17:00 | 17.95990 | -63.80405 | 24214 ft | 401 kts | 279° |
| 2026-05-06 17:00 | 17.96530 | -63.83277 | 24636 ft | 403 kts | 279° |
| 2026-05-06 17:00 | 17.97074 | -63.86177 | 25041 ft | 405 kts | 279° |
| 2026-05-06 17:00 | 17.97619 | -63.89087 | 25464 ft | 407 kts | 279° |
| 2026-05-06 17:01 | 17.98170 | -63.92026 | 25865 ft | 410 kts | 279° |
| 2026-05-06 17:01 | 17.98721 | -63.94969 | 26277 ft | 412 kts | 279° |
| 2026-05-06 17:01 | 17.99276 | -63.97937 | 26680 ft | 415 kts | 279° |
| 2026-05-06 17:01 | 17.99825 | -64.00872 | 27064 ft | 417 kts | 279° |
| 2026-05-06 17:02 | 18.00393 | -64.03917 | 27461 ft | 419 kts | 279° |
| 2026-05-06 17:02 | 18.00948 | -64.06885 | 27853 ft | 421 kts | 279° |
| 2026-05-06 17:02 | 18.01513 | -64.09919 | 28202 ft | 425 kts | 279° |
| 2026-05-06 17:02 | 18.02082 | -64.12975 | 28579 ft | 427 kts | 279° |
| 2026-05-06 17:03 | 18.02654 | -64.16049 | 28962 ft | 429 kts | 279° |
| 2026-05-06 17:03 | 18.03227 | -64.19133 | 29312 ft | 431 kts | 279° |
| 2026-05-06 17:03 | 18.03804 | -64.22235 | 29682 ft | 433 kts | 279° |
| 2026-05-06 17:03 | 18.04376 | -64.25315 | 30043 ft | 435 kts | 279° |
| 2026-05-06 17:04 | 18.04965 | -64.28495 | 30353 ft | 438 kts | 279° |
| 2026-05-06 17:04 | 18.05539 | -64.31596 | 30682 ft | 438 kts | 280° |
| 2026-05-06 17:04 | 18.06123 | -64.34749 | 30998 ft | 440 kts | 280° |
| 2026-05-06 17:04 | 18.06706 | -64.37908 | 31305 ft | 441 kts | 280° |
| 2026-05-06 17:05 | 18.07293 | -64.41084 | 31605 ft | 443 kts | 280° |
| 2026-05-06 17:05 | 18.07882 | -64.44272 | 31903 ft | 445 kts | 280° |
| 2026-05-06 17:05 | 18.08472 | -64.47472 | 32187 ft | 446 kts | 280° |
| 2026-05-06 17:05 | 18.09063 | -64.50682 | 32476 ft | 448 kts | 280° |
| 2026-05-06 17:06 | 18.09647 | -64.53860 | 32770 ft | 449 kts | 280° |
| 2026-05-06 17:06 | 18.10250 | -64.57138 | 33042 ft | 451 kts | 280° |
| 2026-05-06 17:06 | 18.10839 | -64.60346 | 33310 ft | 453 kts | 280° |
| 2026-05-06 17:06 | 18.11436 | -64.63598 | 33592 ft | 454 kts | 280° |
| 2026-05-06 17:07 | 18.12033 | -64.66855 | 33967 ft | 453 kts | 280° |
| 2026-05-06 17:07 | 18.12628 | -64.70108 | 34355 ft | 451 kts | 280° |
| 2026-05-06 17:07 | 18.13217 | -64.73331 | 34730 ft | 449 kts | 280° |
| 2026-05-06 17:07 | 18.13808 | -64.76562 | 35084 ft | 447 kts | 280° |
| 2026-05-06 17:08 | 18.14393 | -64.79768 | 35441 ft | 445 kts | 280° |
| 2026-05-06 17:08 | 18.14975 | -64.82957 | 35795 ft | 443 kts | 280° |
| 2026-05-06 17:08 | 18.15546 | -64.86095 | 36140 ft | 441 kts | 280° |
| 2026-05-06 17:08 | 18.16121 | -64.89249 | 36482 ft | 439 kts | 280° |
| 2026-05-06 17:09 | 18.16695 | -64.92405 | 36837 ft | 437 kts | 280° |
| 2026-05-06 17:09 | 18.17266 | -64.95544 | 37170 ft | 435 kts | 280° |
| 2026-05-06 17:09 | 18.17721 | -64.98686 | 37483 ft | 433 kts | 275° |
| 2026-05-06 17:09 | 18.18016 | -65.01828 | 37813 ft | 431 kts | 275° |
| 2026-05-06 17:10 | 18.18336 | -65.04964 | 38074 ft | 430 kts | 276° |
| 2026-05-06 17:10 | 18.18999 | -65.11190 | 38137 ft | 427 kts | 276° |
| 2026-05-06 17:11 | 18.19662 | -65.17359 | 38124 ft | 426 kts | 276° |
| 2026-05-06 17:11 | 18.20328 | -65.23558 | 38119 ft | 426 kts | 276° |
| 2026-05-06 17:12 | 18.20991 | -65.29755 | 38117 ft | 426 kts | 276° |
| 2026-05-06 17:12 | 18.21652 | -65.35942 | 38119 ft | 425 kts | 276° |
| 2026-05-06 17:13 | 18.22312 | -65.42148 | 38124 ft | 425 kts | 276° |
| 2026-05-06 17:13 | 18.22964 | -65.48303 | 38121 ft | 425 kts | 276° |
| 2026-05-06 17:14 | 18.23616 | -65.54477 | 38127 ft | 425 kts | 276° |
| 2026-05-06 17:14 | 18.24239 | -65.60388 | 38123 ft | 425 kts | 275° |
| 2026-05-06 17:15 | 18.24891 | -65.66582 | 38127 ft | 425 kts | 276° |
| 2026-05-06 17:15 | 18.25533 | -65.72716 | 38120 ft | 425 kts | 275° |
| 2026-05-06 17:16 | 18.26178 | -65.78893 | 38124 ft | 425 kts | 275° |
| 2026-05-06 17:16 | 18.26805 | -65.84916 | 38114 ft | 425 kts | 275° |
| 2026-05-06 17:17 | 18.27446 | -65.91098 | 38112 ft | 425 kts | 275° |
| 2026-05-06 17:17 | 18.28085 | -65.97273 | 38111 ft | 425 kts | 275° |
| 2026-05-06 17:18 | 18.28720 | -66.03431 | 38109 ft | 425 kts | 275° |
| 2026-05-06 17:18 | 18.29355 | -66.09612 | 38109 ft | 425 kts | 275° |
| 2026-05-06 17:19 | 18.29988 | -66.15791 | 38111 ft | 425 kts | 275° |
| 2026-05-06 17:19 | 18.30620 | -66.21971 | 38101 ft | 425 kts | 275° |
| 2026-05-06 17:20 | 18.31250 | -66.28161 | 38102 ft | 425 kts | 275° |
| 2026-05-06 17:20 | 18.31878 | -66.34354 | 38098 ft | 425 kts | 275° |
| 2026-05-06 17:21 | 18.32504 | -66.40541 | 38101 ft | 425 kts | 275° |
| 2026-05-06 17:21 | 18.33128 | -66.46739 | 38101 ft | 425 kts | 275° |
| 2026-05-06 17:22 | 18.33746 | -66.52888 | 38098 ft | 425 kts | 275° |
| 2026-05-06 17:22 | 18.34367 | -66.59085 | 38094 ft | 425 kts | 275° |
| 2026-05-06 17:23 | 18.34984 | -66.65273 | 38092 ft | 425 kts | 275° |
| 2026-05-06 17:23 | 18.35601 | -66.71471 | 38092 ft | 425 kts | 275° |
| 2026-05-06 17:24 | 18.36215 | -66.77667 | 38092 ft | 425 kts | 275° |
| 2026-05-06 17:24 | 18.36828 | -66.83869 | 38095 ft | 425 kts | 275° |
| 2026-05-06 17:25 | 18.37439 | -66.90068 | 38103 ft | 426 kts | 275° |
| 2026-05-06 17:25 | 18.38048 | -66.96269 | 38111 ft | 426 kts | 275° |
| 2026-05-06 17:26 | 18.38654 | -67.02474 | 38114 ft | 426 kts | 275° |
| 2026-05-06 17:26 | 18.39256 | -67.08642 | 38113 ft | 426 kts | 275° |
| 2026-05-06 17:27 | 18.39859 | -67.14851 | 38119 ft | 426 kts | 275° |
| 2026-05-06 17:27 | 18.40462 | -67.21073 | 38114 ft | 427 kts | 275° |
| 2026-05-06 17:28 | 18.41062 | -67.27286 | 38112 ft | 427 kts | 275° |
| 2026-05-06 17:28 | 18.41647 | -67.33370 | 38105 ft | 427 kts | 275° |
| 2026-05-06 17:29 | 18.42240 | -67.39560 | 38098 ft | 427 kts | 275° |
| 2026-05-06 17:29 | 18.42835 | -67.45791 | 38090 ft | 427 kts | 275° |
| 2026-05-06 17:30 | 18.43427 | -67.52013 | 38084 ft | 428 kts | 275° |
| 2026-05-06 17:30 | 18.44019 | -67.58254 | 37724 ft | 424 kts | 275° |
| 2026-05-06 17:30 | 18.44303 | -67.61253 | 37124 ft | 424 kts | 275° |
| 2026-05-06 17:31 | 18.44584 | -67.64216 | 36438 ft | 424 kts | 275° |
| 2026-05-06 17:31 | 18.44757 | -67.66066 | 36104 ft | 423 kts | 275° |
| 2026-05-06 17:31 | 18.44934 | -67.67945 | 35820 ft | 420 kts | 275° |
| 2026-05-06 17:31 | 18.45221 | -67.70993 | 35399 ft | 415 kts | 275° |
| 2026-05-06 17:32 | 18.45506 | -67.74014 | 34917 ft | 412 kts | 275° |
| 2026-05-06 17:32 | 18.45786 | -67.77007 | 34415 ft | 411 kts | 275° |
| 2026-05-06 17:32 | 18.46067 | -67.79995 | 33885 ft | 409 kts | 275° |
| 2026-05-06 17:32 | 18.46346 | -67.82980 | 33340 ft | 407 kts | 275° |
| 2026-05-06 17:33 | 18.46618 | -67.85896 | 32855 ft | 403 kts | 275° |
| 2026-05-06 17:33 | 18.46892 | -67.88826 | 32381 ft | 400 kts | 276° |
| 2026-05-06 17:33 | 18.47162 | -67.91731 | 31907 ft | 397 kts | 276° |
| 2026-05-06 17:33 | 18.47339 | -67.93627 | 31604 ft | 395 kts | 276° |
| 2026-05-06 17:34 | 18.47589 | -67.96325 | 31170 ft | 393 kts | 276° |
| 2026-05-06 17:34 | 18.47859 | -67.99214 | 30698 ft | 391 kts | 277° |
| 2026-05-06 17:34 | 18.48201 | -68.02062 | 30154 ft | 391 kts | 277° |
| 2026-05-06 17:34 | 18.48547 | -68.04903 | 29659 ft | 389 kts | 277° |
| 2026-05-06 17:35 | 18.48884 | -68.07709 | 29231 ft | 384 kts | 277° |
| 2026-05-06 17:35 | 18.49215 | -68.10484 | 28801 ft | 381 kts | 277° |
| 2026-05-06 17:35 | 18.49545 | -68.13253 | 28361 ft | 378 kts | 277° |
| 2026-05-06 17:36 | 18.50192 | -68.18699 | 27490 ft | 373 kts | 277° |
| 2026-05-06 17:36 | 18.50513 | -68.21402 | 27073 ft | 371 kts | 278° |
| 2026-05-06 17:36 | 18.50828 | -68.24054 | 26633 ft | 369 kts | 278° |
| 2026-05-06 17:36 | 18.51150 | -68.26780 | 26200 ft | 368 kts | 278° |
| 2026-05-06 17:37 | 18.51463 | -68.29423 | 25780 ft | 367 kts | 278° |
| 2026-05-06 17:37 | 18.51777 | -68.32088 | 25355 ft | 366 kts | 278° |
| 2026-05-06 17:37 | 18.52092 | -68.34751 | 24927 ft | 365 kts | 278° |
| 2026-05-06 17:37 | 18.52407 | -68.37431 | 24512 ft | 365 kts | 278° |
| 2026-05-06 17:38 | 18.52718 | -68.40070 | 24084 ft | 365 kts | 278° |
| 2026-05-06 17:38 | 18.53029 | -68.42718 | 23662 ft | 364 kts | 278° |
| 2026-05-06 17:38 | 18.53339 | -68.45366 | 23171 ft | 363 kts | 278° |
| 2026-05-06 17:38 | 18.53648 | -68.47997 | 22725 ft | 360 kts | 278° |
| 2026-05-06 17:39 | 18.53954 | -68.50607 | 22311 ft | 357 kts | 278° |
| 2026-05-06 17:39 | 18.54256 | -68.53199 | 21890 ft | 355 kts | 278° |
| 2026-05-06 17:39 | 18.54558 | -68.55773 | 21484 ft | 352 kts | 278° |
| 2026-05-06 17:39 | 18.54852 | -68.58297 | 21089 ft | 349 kts | 278° |
| 2026-05-06 17:40 | 18.55146 | -68.60831 | 20684 ft | 347 kts | 278° |
| 2026-05-06 17:40 | 18.55439 | -68.63344 | 20283 ft | 344 kts | 278° |
| 2026-05-06 17:40 | 18.55729 | -68.65838 | 19889 ft | 341 kts | 277° |
| 2026-05-06 17:40 | 18.56017 | -68.68321 | 19496 ft | 339 kts | 277° |
| 2026-05-06 17:41 | 18.56303 | -68.70781 | 19106 ft | 337 kts | 277° |
| 2026-05-06 17:41 | 18.56585 | -68.73221 | 18714 ft | 335 kts | 277° |
| 2026-05-06 17:41 | 18.56867 | -68.75650 | 18319 ft | 333 kts | 277° |
| 2026-05-06 17:41 | 18.57143 | -68.78034 | 17892 ft | 331 kts | 277° |
| 2026-05-06 17:42 | 18.57420 | -68.80436 | 17486 ft | 328 kts | 277° |
| 2026-05-06 17:42 | 18.57695 | -68.82821 | 17096 ft | 326 kts | 277° |
| 2026-05-06 17:42 | 18.57967 | -68.85179 | 16717 ft | 323 kts | 277° |
| 2026-05-06 17:42 | 18.58236 | -68.87517 | 16327 ft | 321 kts | 277° |
| 2026-05-06 17:43 | 18.58504 | -68.89843 | 15961 ft | 318 kts | 277° |
| 2026-05-06 17:43 | 18.58768 | -68.92148 | 15580 ft | 316 kts | 277° |
| 2026-05-06 17:43 | 18.59033 | -68.94457 | 15204 ft | 315 kts | 277° |
| 2026-05-06 17:43 | 18.59295 | -68.96749 | 14828 ft | 315 kts | 277° |
| 2026-05-06 17:44 | 18.59469 | -68.98273 | 14568 ft | 316 kts | 277° |
| 2026-05-06 17:44 | 18.59824 | -69.01371 | 13978 ft | 319 kts | 277° |
| 2026-05-06 17:44 | 18.60087 | -69.03668 | 13535 ft | 319 kts | 277° |
| 2026-05-06 17:44 | 18.60351 | -69.05988 | 13116 ft | 317 kts | 277° |
| 2026-05-06 17:45 | 18.60612 | -69.08287 | 12718 ft | 315 kts | 277° |
| 2026-05-06 17:45 | 18.60785 | -69.09806 | 12461 ft | 313 kts | 277° |
| 2026-05-06 17:45 | 18.61043 | -69.12077 | 12087 ft | 311 kts | 276° |
| 2026-05-06 17:45 | 18.61301 | -69.14336 | 11700 ft | 309 kts | 276° |
| 2026-05-06 17:46 | 18.61555 | -69.16579 | 11312 ft | 308 kts | 276° |
| 2026-05-06 17:46 | 18.61808 | -69.18810 | 10930 ft | 307 kts | 276° |
| 2026-05-06 17:46 | 18.62060 | -69.21044 | 10557 ft | 306 kts | 276° |
| 2026-05-06 17:46 | 18.62310 | -69.23250 | 10306 ft | 300 kts | 275° |
| 2026-05-06 17:47 | 18.62558 | -69.25422 | 10150 ft | 296 kts | 275° |
| 2026-05-06 17:47 | 18.62800 | -69.27588 | 9799 ft | 298 kts | 275° |
| 2026-05-06 17:47 | 18.63045 | -69.29766 | 9391 ft | 300 kts | 275° |
| 2026-05-06 17:47 | 18.63292 | -69.31953 | 9012 ft | 300 kts | 275° |
| 2026-05-06 17:48 | 18.63540 | -69.34147 | 8641 ft | 300 kts | 275° |
| 2026-05-06 17:48 | 18.63786 | -69.36328 | 8241 ft | 300 kts | 274° |
| 2026-05-06 17:48 | 18.64027 | -69.38486 | 7879 ft | 300 kts | 275° |
| 2026-05-06 17:48 | 18.64274 | -69.40668 | 7503 ft | 300 kts | 275° |
| 2026-05-06 17:49 | 18.64517 | -69.42857 | 7135 ft | 299 kts | 275° |
| 2026-05-06 17:49 | 18.64763 | -69.45036 | 6799 ft | 300 kts | 275° |
| 2026-05-06 17:49 | 18.65007 | -69.47227 | 6397 ft | 301 kts | 274° |
| 2026-05-06 17:49 | 18.65252 | -69.49422 | 6003 ft | 301 kts | 275° |
| 2026-05-06 17:50 | 18.65500 | -69.51609 | 5611 ft | 301 kts | 275° |
| 2026-05-06 17:50 | 18.65740 | -69.53792 | 5240 ft | 301 kts | 275° |
| 2026-05-06 17:50 | 18.65981 | -69.55976 | 4975 ft | 296 kts | 275° |
| 2026-05-06 17:50 | 18.66213 | -69.58057 | 4892 ft | 278 kts | 275° |
| 2026-05-06 17:51 | 18.66437 | -69.60051 | 4665 ft | 269 kts | 274° |
| 2026-05-06 17:51 | 18.66631 | -69.61991 | 4442 ft | 263 kts | 268° |
| 2026-05-06 17:51 | 18.66233 | -69.63822 | 4061 ft | 254 kts | 236° |
| 2026-05-06 17:51 | 18.65260 | -69.65344 | 3839 ft | 248 kts | 232° |
| 2026-05-06 17:52 | 18.64297 | -69.66837 | 3565 ft | 243 kts | 232° |
| 2026-05-06 17:52 | 18.63372 | -69.68273 | 3352 ft | 236 kts | 232° |
| 2026-05-06 17:52 | 18.62461 | -69.69693 | 3162 ft | 232 kts | 232° |
| 2026-05-06 17:52 | 18.61558 | -69.71090 | 2934 ft | 228 kts | 232° |
| 2026-05-06 17:53 | 18.60637 | -69.72417 | 2906 ft | 219 kts | 222° |
| 2026-05-06 17:53 | 18.59323 | -69.73057 | 2793 ft | 204 kts | 177° |
| 2026-05-06 17:53 | 18.58044 | -69.72681 | 2887 ft | 181 kts | 158° |
| 2026-05-06 17:53 | 18.56896 | -69.72237 | 2796 ft | 175 kts | 158° |
| 2026-05-06 17:54 | 18.55751 | -69.71806 | 2399 ft | 174 kts | 159° |
| 2026-05-06 17:54 | 18.54642 | -69.71400 | 2175 ft | 166 kts | 161° |
| 2026-05-06 17:54 | 18.54525 | -69.71357 | 2153 ft | 167 kts | 158° |
| 2026-05-06 17:54 | 18.53725 | -69.71058 | 1995 ft | 165 kts | 160° |
| 2026-05-06 17:55 | 18.52667 | -69.70668 | 1749 ft | 153 kts | 158° |
| 2026-05-06 17:55 | 18.51744 | -69.70335 | 1723 ft | 134 kts | 164° |
| 2026-05-06 17:55 | 18.50853 | -69.70004 | 1710 ft | 139 kts | 161° |
| 2026-05-06 17:55 | 18.49913 | -69.69678 | 1568 ft | 148 kts | 161° |
| 2026-05-06 17:56 | 18.48959 | -69.69342 | 1408 ft | 145 kts | 159° |
| 2026-05-06 17:56 | 18.48022 | -69.68987 | 1210 ft | 141 kts | 160° |
| 2026-05-06 17:56 | 18.47101 | -69.68613 | 894 ft | 144 kts | 158° |
| 2026-05-06 17:56 | 18.46140 | -69.68260 | 591 ft | 148 kts | 158° |
| 2026-05-06 17:57 | 18.45183 | -69.67894 | 336 ft | 140 kts | 160° |
| 2026-05-06 17:57 | 18.44286 | -69.67576 | 134 ft | 135 kts | 159° |
| 2026-05-06 17:57 | 18.43452 | -69.67270 | 68 ft | 115 kts | 159° |
| 2026-05-06 17:57 | 18.42831 | -69.67038 | 72 ft | 72 kts | 161° |
| 2026-05-06 17:58 | 18.42492 | -69.66914 | 70 ft | 41 kts | 161° |
| 2026-05-06 17:58 | 18.42308 | -69.66804 | 66 ft | 19 kts | 134° |
| 2026-05-06 17:58 | 18.42252 | -69.66822 | 68 ft | 7 kts | 289° |
| 2026-05-06 17:58 | 18.42291 | -69.66842 | 67 ft | 10 kts | 341° |
| 2026-05-06 17:59 | 18.42393 | -69.66879 | 60 ft | 19 kts | 339° |
| 2026-05-06 17:59 | 18.42462 | -69.66904 | 69 ft | 10 kts | 342° |
| 2026-05-06 17:59 | 18.42533 | -69.66931 | 70 ft | 12 kts | 339° |
| 2026-05-06 17:59 | 18.42616 | -69.66961 | 68 ft | 14 kts | 341° |
| 2026-05-06 18:00 | 18.42715 | -69.66997 | 67 ft | 16 kts | 341° |
| 2026-05-06 18:00 | 18.42827 | -69.67038 | 63 ft | 18 kts | 340° |
| 2026-05-06 18:00 | 18.42920 | -69.67077 | 69 ft | 9 kts | 322° |
| 2026-05-06 18:00 | 18.42949 | -69.67144 | 68 ft | 12 kts | 276° |
| 2026-05-06 18:01 | 18.42960 | -69.67245 | 65 ft | 15 kts | 276° |
| 2026-05-06 18:01 | 18.42955 | -69.67321 | 60 ft | 7 kts | 236° |
| 2026-05-06 18:01 | 18.42948 | -69.67328 | 63 ft | 6 kts | 224° |
| 2026-05-06 18:01 | 18.42937 | -69.67336 | 63 ft | 1 kts | 210° |
| 2026-05-06 18:02 | 18.42929 | -69.67340 | 62 ft | 3 kts | 198° |
| 2026-05-06 18:02 | 18.42897 | -69.67340 | 70 ft | 7 kts | 172° |
| 2026-05-06 18:02 | 18.42836 | -69.67364 | 68 ft | 13 kts | 254° |
| 2026-05-06 18:02 | 18.42835 | -69.67408 | 71 ft | 4 kts | 283° |
| 2026-05-06 18:03 | 18.42851 | -69.67432 | 58 ft | 4 kts | 319° |
| 2026-05-06 18:03 | 18.42858 | -69.67442 | 59 ft | 2 kts | 306° |
| 2026-05-06 18:03 | 18.42861 | -69.67445 | 61 ft | 0 kts | 309° |